Карточка аэропорта UAII

Внимание!
Информация на этой странице в стадии наполнения.
Если вы не увидели какой-то информации, или заметили неточность - пожалуйста сообщите нам!
Спасибо!
Команда RU-STAFF
Название аэропортаШымкент
Название аэропорта (англ.)Shymkent
Превышение1389 ft. (423.4 m.)
Координаты42°21.348', 69°28.734'
Высота перехода5000
Эшелон переходаFL70
Коды ответчика3430-3437, 3530-3537
Зона ОрВДШымкент РПИ (UAII)
Данные METARUAII 190200Z 16003MPS 6000 NSC 18/02 Q1012 R28/0///70 NOSIG RMK QFE722/0962
Проноз погоды (TAF)UAII 182306Z 1900/1924 14003G08MPS 6000 NSC TX31/1910Z TN16/1901Z TEMPO 1900/1904 18005MPS BECMG 1904/1905 26003G08MPS TEMPO 1905/1915 30005G10MPS SCT040
NOTAMshow/hide NOTAM
AWOS   TABLE

Информация о ВПП

ВПП Длина ВПП (м.) Покрытие Курс ВПП Частота ILS
103300Железобетон106111.7
283300Железобетон286110.3

Диспетчерские позиции




Спутниковое изображение